Time;durP1;ratioP1;P1;durP2;ratioP2;P2;SDS_P1;SDS_P2;PMS_P1;PMS_P2;Temp;Humidity;BMP_temperature;BMP_pressure;BME280_temperature;BME280_humidity;BME280_pressure;Samples;Min_cycle;Max_cycle;Signal;HPM_P1;HPM_P2
2024/03/06 00:00:33;;;;;;;26.33;16.00;;;;;;;;;;5135365;27;20223;-82
2024/03/06 00:03:01;;;;;;;26.47;15.80;;;;;;;;;;5135027;27;20664;-81
2024/03/06 00:05:28;;;;;;;20.87;14.83;;;;;;;;;;5135497;27;20295;-82
2024/03/06 00:07:56;;;;;;;21.00;13.87;;;;;;;;;;5134790;27;20613;-82
2024/03/06 00:10:23;;;;;;;22.10;13.50;;;;;;;;;;5134983;27;20737;-82
2024/03/06 00:12:50;;;;;;;22.33;14.37;;;;;;;;;;5134824;27;20571;-82
2024/03/06 00:15:17;;;;;;;27.47;15.23;;;;;;;;;;5134323;27;20203;-82
2024/03/06 00:17:44;;;;;;;22.70;14.20;;;;;;;;;;5134347;27;20236;-81
2024/03/06 00:20:13;;;;;;;23.93;14.27;;;;;;;;;;5134692;27;20285;-81
2024/03/06 00:22:41;;;;;;;23.10;14.97;;;;;;;;;;5134637;27;20205;-82
2024/03/06 00:25:09;;;;;;;24.23;14.23;;;;;;;;;;5134921;27;20238;-82
2024/03/06 00:27:36;;;;;;;32.30;17.57;;;;;;;;;;5134753;27;20200;-82
2024/03/06 00:30:03;;;;;;;25.90;15.87;;;;;;;;;;5134508;27;20324;-81
2024/03/06 00:32:30;;;;;;;25.13;15.50;;;;;;;;;;5134467;27;20248;-82
2024/03/06 00:34:58;;;;;;;23.73;15.37;;;;;;;;;;5134464;27;20703;-82
2024/03/06 00:37:26;;;;;;;21.90;14.70;;;;;;;;;;5134428;27;20575;-82
2024/03/06 00:39:54;;;;;;;20.77;14.53;;;;;;;;;;5134433;27;20273;-81
2024/03/06 00:42:21;;;;;;;23.63;14.97;;;;;;;;;;5134736;27;20189;-81
2024/03/06 00:44:48;;;;;;;20.93;13.33;;;;;;;;;;5134339;27;20197;-82
2024/03/06 00:47:15;;;;;;;16.47;12.30;;;;;;;;;;5134019;27;20209;-81
2024/03/06 00:49:43;;;;;;;14.93;11.97;;;;;;;;;;5134297;27;20235;-82
2024/03/06 00:52:10;;;;;;;16.50;11.90;;;;;;;;;;5134419;27;20288;-82
2024/03/06 00:54:38;;;;;;;18.17;12.17;;;;;;;;;;5134100;27;20200;-81
2024/03/06 00:57:06;;;;;;;21.10;13.37;;;;;;;;;;5134176;27;20240;-81
2024/03/06 00:59:33;;;;;;;17.23;13.57;;;;;;;;;;5133847;27;20199;-81
2024/03/06 01:02:00;;;;;;;21.03;14.87;;;;;;;;;;5133986;27;20284;-82
2024/03/06 01:04:27;;;;;;;20.30;14.00;;;;;;;;;;5134509;27;20292;-82
2024/03/06 01:06:54;;;;;;;19.70;13.47;;;;;;;;;;5133941;27;20220;-81
2024/03/06 01:09:23;;;;;;;23.37;15.97;;;;;;;;;;5133673;27;20250;-82
2024/03/06 01:11:51;;;;;;;26.70;16.27;;;;;;;;;;5132766;27;20201;-81
2024/03/06 01:14:18;;;;;;;22.57;15.17;;;;;;;;;;5112437;28;20236;-82
2024/03/06 01:16:45;;;;;;;22.23;15.63;;;;;;;;;;5112959;28;20240;-82
2024/03/06 01:19:12;;;;;;;23.03;15.80;;;;;;;;;;5113595;28;20276;-81
2024/03/06 01:21:40;;;;;;;22.20;16.00;;;;;;;;;;5112998;28;20198;-82
2024/03/06 01:24:07;;;;;;;22.43;16.70;;;;;;;;;;5113332;28;20194;-82
2024/03/06 01:26:34;;;;;;;27.87;17.77;;;;;;;;;;5112950;28;20273;-83
2024/03/06 01:29:03;;;;;;;23.87;16.43;;;;;;;;;;5111916;28;20247;-82
2024/03/06 01:31:30;;;;;;;21.17;16.90;;;;;;;;;;5112971;28;20201;-82
2024/03/06 01:33:57;;;;;;;24.53;16.43;;;;;;;;;;5113204;28;20288;-82
2024/03/06 01:36:24;;;;;;;26.20;16.50;;;;;;;;;;5112916;28;20232;-82
2024/03/06 01:38:52;;;;;;;25.83;15.87;;;;;;;;;;5112995;28;20197;-82
2024/03/06 01:41:19;;;;;;;25.70;16.97;;;;;;;;;;5112882;28;20222;-83
2024/03/06 01:43:46;;;;;;;25.53;16.97;;;;;;;;;;5112383;28;20202;-81
2024/03/06 01:46:15;;;;;;;26.87;18.03;;;;;;;;;;5112927;28;20653;-82
2024/03/06 01:48:42;;;;;;;30.70;17.93;;;;;;;;;;5112539;28;20328;-82
2024/03/06 01:51:10;;;;;;;23.77;17.37;;;;;;;;;;5112425;28;20228;-80
2024/03/06 01:53:37;;;;;;;25.07;16.07;;;;;;;;;;5112355;28;20288;-81
2024/03/06 01:56:05;;;;;;;20.50;14.40;;;;;;;;;;5112293;28;20197;-81
2024/03/06 01:58:34;;;;;;;17.70;13.77;;;;;;;;;;5111933;28;20277;-81
2024/03/06 02:01:02;;;;;;;21.87;13.83;;;;;;;;;;5112021;28;20590;-81
2024/03/06 02:03:30;;;;;;;18.83;13.57;;;;;;;;;;5112433;28;20270;-81
2024/03/06 02:05:59;;;;;;;24.17;14.97;;;;;;;;;;5112260;28;20289;-81
2024/03/06 02:08:26;;;;;;;22.07;14.50;;;;;;;;;;5112412;28;20203;-82
2024/03/06 02:10:53;;;;;;;24.13;16.70;;;;;;;;;;5111828;28;20678;-81
2024/03/06 02:13:21;;;;;;;26.00;16.73;;;;;;;;;;5124882;27;20323;-81
2024/03/06 02:15:48;;;;;;;28.50;17.30;;;;;;;;;;5133072;27;20273;-81
2024/03/06 02:18:15;;;;;;;25.67;16.07;;;;;;;;;;5132751;27;20280;-81
2024/03/06 02:20:45;;;;;;;23.40;15.27;;;;;;;;;;5132608;27;20216;-81
2024/03/06 02:23:13;;;;;;;22.97;14.63;;;;;;;;;;5132589;27;20224;-80
2024/03/06 02:25:40;;;;;;;19.77;13.80;;;;;;;;;;5132737;27;20204;-81
2024/03/06 02:28:07;;;;;;;19.30;13.83;;;;;;;;;;5132192;27;20295;-82
2024/03/06 02:30:36;;;;;;;16.03;12.33;;;;;;;;;;5132382;27;20327;-81
2024/03/06 02:33:04;;;;;;;22.13;13.23;;;;;;;;;;5132823;27;20643;-80
2024/03/06 02:35:31;;;;;;;22.13;13.03;;;;;;;;;;5132358;27;20573;-81
2024/03/06 02:37:59;;;;;;;20.80;13.10;;;;;;;;;;5132715;27;20197;-81
2024/03/06 02:40:27;;;;;;;22.77;13.03;;;;;;;;;;5131303;27;20282;-81
2024/03/06 02:42:54;;;;;;;19.17;12.40;;;;;;;;;;5124514;27;20235;-82
2024/03/06 02:45:21;;;;;;;22.40;12.63;;;;;;;;;;5111551;28;20203;-81
2024/03/06 02:47:48;;;;;;;19.13;11.43;;;;;;;;;;5111635;28;20682;-81
2024/03/06 02:50:15;;;;;;;18.17;11.83;;;;;;;;;;5111500;28;20223;-81
2024/03/06 02:52:43;;;;;;;22.13;12.97;;;;;;;;;;5111352;28;20746;-80
2024/03/06 02:55:11;;;;;;;21.53;13.40;;;;;;;;;;5111515;28;20205;-82
2024/03/06 02:57:39;;;;;;;22.97;13.83;;;;;;;;;;5111033;28;20237;-81
2024/03/06 03:00:12;;;;;;;19.10;13.33;;;;;;;;;;5111415;28;20680;-81
2024/03/06 03:02:40;;;;;;;20.77;13.17;;;;;;;;;;5111081;28;20198;-81
2024/03/06 03:05:08;;;;;;;18.13;13.23;;;;;;;;;;5111100;28;20197;-81
2024/03/06 03:07:35;;;;;;;17.70;12.77;;;;;;;;;;5111663;28;20209;-82
2024/03/06 03:10:02;;;;;;;18.93;12.80;;;;;;;;;;5111033;28;20228;-81
2024/03/06 03:12:31;;;;;;;20.23;13.30;;;;;;;;;;5118120;28;20286;-80
2024/03/06 03:14:58;;;;;;;17.70;12.27;;;;;;;;;;5131349;28;20200;-80
2024/03/06 03:17:25;;;;;;;18.00;12.37;;;;;;;;;;5131443;27;20274;-81
2024/03/06 03:19:53;;;;;;;22.23;12.73;;;;;;;;;;5132054;28;20746;-81
2024/03/06 03:22:20;;;;;;;17.67;11.93;;;;;;;;;;5116863;28;20893;-81
2024/03/06 03:24:48;;;;;;;22.37;13.40;;;;;;;;;;5110869;28;20193;-81
2024/03/06 03:27:15;;;;;;;19.63;13.10;;;;;;;;;;5110868;28;20664;-80
2024/03/06 03:29:44;;;;;;;20.20;12.63;;;;;;;;;;5111182;28;20304;-80
2024/03/06 03:32:11;;;;;;;18.17;12.87;;;;;;;;;;5111793;28;20201;-81
2024/03/06 03:34:38;;;;;;;23.07;13.60;;;;;;;;;;5103161;28;20300;-80
2024/03/06 03:37:06;;;;;;;51.90;28.73;;;;;;;;;;5096306;28;20673;-81
2024/03/06 03:39:33;;;;;;;37.10;24.57;;;;;;;;;;5090559;28;20265;-80
2024/03/06 03:42:00;;;;;;;30.50;21.33;;;;;;;;;;5090880;28;20289;-81
2024/03/06 03:44:27;;;;;;;26.47;16.90;;;;;;;;;;5090694;28;20205;-81
2024/03/06 03:46:56;;;;;;;17.80;12.97;;;;;;;;;;5090616;28;20202;-81
2024/03/06 03:49:23;;;;;;;18.97;12.67;;;;;;;;;;5090807;28;20268;-81
2024/03/06 03:51:51;;;;;;;16.93;11.53;;;;;;;;;;5093543;28;20194;-81
2024/03/06 03:54:18;;;;;;;17.80;12.20;;;;;;;;;;5094114;28;20201;-81
2024/03/06 03:56:45;;;;;;;16.87;10.73;;;;;;;;;;5094510;28;20236;-81
2024/03/06 03:59:13;;;;;;;18.10;12.20;;;;;;;;;;5094141;28;20293;-81
2024/03/06 04:01:40;;;;;;;21.33;12.87;;;;;;;;;;5094708;28;20201;-81
2024/03/06 04:04:09;;;;;;;24.07;13.80;;;;;;;;;;5094454;28;20224;-81
2024/03/06 04:06:36;;;;;;;22.93;12.50;;;;;;;;;;5093951;28;20293;-80
2024/03/06 04:09:04;;;;;;;18.33;11.90;;;;;;;;;;5093854;28;20644;-81
2024/03/06 04:11:33;;;;;;;18.67;12.33;;;;;;;;;;5094085;28;20201;-81
2024/03/06 04:14:00;;;;;;;18.73;11.40;;;;;;;;;;5132787;27;20296;-81
2024/03/06 04:16:27;;;;;;;20.20;12.00;;;;;;;;;;5135042;27;20232;-81
2024/03/06 04:18:54;;;;;;;18.27;11.47;;;;;;;;;;5135361;27;20290;-81
2024/03/06 04:21:23;;;;;;;17.53;11.40;;;;;;;;;;5135023;27;20222;-81
2024/03/06 04:23:50;;;;;;;17.30;12.00;;;;;;;;;;5134391;27;20198;-81
2024/03/06 04:26:17;;;;;;;20.73;12.00;;;;;;;;;;5134705;27;20624;-80
2024/03/06 04:28:45;;;;;;;13.57;10.43;;;;;;;;;;5135160;27;20253;-81
2024/03/06 04:31:12;;;;;;;16.97;11.03;;;;;;;;;;5134679;27;20228;-81
2024/03/06 04:33:40;;;;;;;15.83;11.37;;;;;;;;;;5134569;27;20192;-80
2024/03/06 04:36:08;;;;;;;17.17;10.90;;;;;;;;;;5134930;27;20268;-80
2024/03/06 04:38:37;;;;;;;17.17;10.67;;;;;;;;;;5134280;27;20726;-81
2024/03/06 04:41:07;;;;;;;16.73;11.10;;;;;;;;;;5134563;27;20195;-80
2024/03/06 04:43:34;;;;;;;17.73;11.50;;;;;;;;;;5134297;27;20234;-80
2024/03/06 04:46:02;;;;;;;16.57;11.20;;;;;;;;;;5135189;27;20199;-81
2024/03/06 04:48:29;;;;;;;16.53;10.83;;;;;;;;;;5134149;27;20236;-82
2024/03/06 04:50:56;;;;;;;14.17;10.63;;;;;;;;;;5134052;27;20315;-81
2024/03/06 04:53:23;;;;;;;19.03;11.50;;;;;;;;;;5134196;27;20200;-81
2024/03/06 04:55:52;;;;;;;17.33;11.20;;;;;;;;;;5134322;27;20629;-81
2024/03/06 04:58:20;;;;;;;18.67;10.93;;;;;;;;;;5134410;27;20204;-81
2024/03/06 05:00:47;;;;;;;15.57;10.90;;;;;;;;;;5134241;27;20191;-81
2024/03/06 05:03:15;;;;;;;14.73;11.37;;;;;;;;;;5117897;27;20292;-80
2024/03/06 05:05:42;;;;;;;18.93;11.80;;;;;;;;;;5113260;28;20223;-80
2024/03/06 05:08:09;;;;;;;19.53;12.00;;;;;;;;;;5113274;28;20198;-81
2024/03/06 05:10:37;;;;;;;15.10;11.53;;;;;;;;;;5113625;28;20224;-81
2024/03/06 05:13:06;;;;;;;16.40;10.97;;;;;;;;;;5124699;27;20250;-81
2024/03/06 05:15:33;;;;;;;18.97;11.43;;;;;;;;;;5133805;27;20242;-81
2024/03/06 05:18:00;;;;;;;17.60;11.07;;;;;;;;;;5133568;27;20200;-81
2024/03/06 05:20:27;;;;;;;17.23;11.23;;;;;;;;;;5133715;27;20630;-82
2024/03/06 05:22:55;;;;;;;18.27;11.33;;;;;;;;;;5133827;27;20665;-82
2024/03/06 05:25:22;;;;;;;14.20;10.80;;;;;;;;;;5132824;27;20700;-81
2024/03/06 05:27:49;;;;;;;16.37;10.63;;;;;;;;;;5133413;27;20573;-80
2024/03/06 05:30:18;;;;;;;12.63;9.93;;;;;;;;;;5132596;27;20233;-81
2024/03/06 05:32:46;;;;;;;17.20;10.37;;;;;;;;;;5103873;27;20201;-82
2024/03/06 05:35:14;;;;;;;17.63;10.50;;;;;;;;;;5100441;28;20258;-81
2024/03/06 05:37:41;;;;;;;16.47;10.70;;;;;;;;;;5092089;28;20225;-81
2024/03/06 05:40:09;;;;;;;13.30;10.23;;;;;;;;;;5092520;28;20205;-80
2024/03/06 05:42:36;;;;;;;14.90;9.83;;;;;;;;;;5092547;28;20200;-81
2024/03/06 05:45:05;;;;;;;16.70;10.13;;;;;;;;;;5092325;28;20196;-82
2024/03/06 05:47:34;;;;;;;14.93;10.53;;;;;;;;;;5092216;28;20726;-82
2024/03/06 05:50:04;;;;;;;16.97;10.87;;;;;;;;;;5091460;28;20243;-81
2024/03/06 05:52:31;;;;;;;15.40;10.63;;;;;;;;;;5092626;28;20193;-81
2024/03/06 05:54:58;;;;;;;17.30;11.50;;;;;;;;;;5092346;28;20288;-81
2024/03/06 05:57:26;;;;;;;17.13;10.90;;;;;;;;;;5092031;28;20297;-82
2024/03/06 05:59:53;;;;;;;17.20;10.97;;;;;;;;;;5091860;28;20732;-80
2024/03/06 06:02:20;;;;;;;17.90;11.23;;;;;;;;;;5092192;28;20724;-82
2024/03/06 06:04:49;;;;;;;14.77;10.67;;;;;;;;;;5091991;28;20204;-82
2024/03/06 06:07:16;;;;;;;15.13;10.87;;;;;;;;;;5092081;28;20198;-82
2024/03/06 06:09:43;;;;;;;17.13;10.97;;;;;;;;;;5091684;28;20196;-82
2024/03/06 06:12:11;;;;;;;14.77;10.03;;;;;;;;;;5099797;27;20291;-82
2024/03/06 06:14:38;;;;;;;15.90;10.60;;;;;;;;;;5132739;27;20202;-83
2024/03/06 06:17:05;;;;;;;14.50;9.73;;;;;;;;;;5132338;27;20234;-83
2024/03/06 06:19:32;;;;;;;15.43;10.43;;;;;;;;;;5132352;27;20199;-83
2024/03/06 06:22:01;;;;;;;17.50;10.73;;;;;;;;;;5132951;27;20313;-80
2024/03/06 06:24:28;;;;;;;15.43;10.23;;;;;;;;;;5132353;27;20287;-79
2024/03/06 06:26:55;;;;;;;15.60;10.93;;;;;;;;;;5132353;27;20247;-79
2024/03/06 06:29:23;;;;;;;16.83;11.00;;;;;;;;;;5130380;27;20290;-77
2024/03/06 06:31:50;;;;;;;18.77;11.07;;;;;;;;;;5111528;28;20266;-78
2024/03/06 06:34:17;;;;;;;15.47;10.50;;;;;;;;;;5111756;28;20206;-80
2024/03/06 06:36:46;;;;;;;15.67;10.57;;;;;;;;;;5111833;28;20294;-79
2024/03/06 06:39:16;;;;;;;42.27;24.27;;;;;;;;;;5111881;28;20219;-78
2024/03/06 06:41:44;;;;;;;18.17;11.83;;;;;;;;;;5111924;28;20199;-78
2024/03/06 06:44:11;;;;;;;21.20;13.27;;;;;;;;;;5111606;28;20205;-79
2024/03/06 06:46:40;;;;;;;15.43;11.00;;;;;;;;;;5111556;28;20252;-79
2024/03/06 06:49:08;;;;;;;14.43;10.83;;;;;;;;;;5111570;28;20574;-78
2024/03/06 06:51:36;;;;;;;17.27;10.30;;;;;;;;;;5093834;28;20257;-79
2024/03/06 06:54:04;;;;;;;15.40;10.63;;;;;;;;;;5111342;28;20195;-79
2024/03/06 06:56:32;;;;;;;16.03;10.63;;;;;;;;;;5111442;28;20235;-80
2024/03/06 06:59:00;;;;;;;13.37;10.00;;;;;;;;;;5111891;28;20196;-78
2024/03/06 07:01:28;;;;;;;12.67;9.83;;;;;;;;;;5111348;28;20228;-78
2024/03/06 07:03:55;;;;;;;15.00;10.17;;;;;;;;;;5102166;28;20203;-79
2024/03/06 07:06:23;;;;;;;13.70;9.30;;;;;;;;;;5110781;28;20203;-79
2024/03/06 07:08:50;;;;;;;13.67;9.50;;;;;;;;;;5111157;28;20198;-80
2024/03/06 07:11:18;;;;;;;14.93;9.97;;;;;;;;;;5110870;28;20227;-79
2024/03/06 07:13:47;;;;;;;14.50;9.97;;;;;;;;;;5128155;28;20201;-80
2024/03/06 07:16:15;;;;;;;13.63;11.03;;;;;;;;;;5131280;28;20734;-80
2024/03/06 07:18:42;;;;;;;18.90;11.70;;;;;;;;;;5131836;28;20201;-81
2024/03/06 07:21:09;;;;;;;16.73;11.77;;;;;;;;;;5131416;28;20204;-80
2024/03/06 07:23:36;;;;;;;14.57;9.33;;;;;;;;;;5113381;28;20272;-81
2024/03/06 07:26:04;;;;;;;11.07;8.37;;;;;;;;;;5111926;28;20195;-81
2024/03/06 07:28:32;;;;;;;14.67;10.33;;;;;;;;;;5114649;28;20199;-81
2024/03/06 07:31:02;;;;;;;13.97;10.67;;;;;;;;;;5114638;28;20229;-81
2024/03/06 07:33:30;;;;;;;14.00;9.80;;;;;;;;;;5115139;28;20198;-80
2024/03/06 07:35:58;;;;;;;11.43;7.43;;;;;;;;;;5114633;28;20574;-78
2024/03/06 07:38:25;;;;;;;11.10;8.73;;;;;;;;;;5114799;28;20192;-81
2024/03/06 07:40:52;;;;;;;10.93;7.20;;;;;;;;;;5114348;28;20204;-80
2024/03/06 07:43:20;;;;;;;10.30;7.23;;;;;;;;;;5114063;28;20226;-81
2024/03/06 07:45:49;;;;;;;10.97;8.57;;;;;;;;;;5113936;28;20667;-81
2024/03/06 07:48:17;;;;;;;11.33;7.43;;;;;;;;;;5114439;28;20193;-83
2024/03/06 07:50:45;;;;;;;12.07;8.67;;;;;;;;;;5114438;28;20234;-82
2024/03/06 07:53:12;;;;;;;11.13;8.07;;;;;;;;;;5114786;28;20193;-83
2024/03/06 07:55:40;;;;;;;10.30;7.57;;;;;;;;;;5114982;28;20284;-80
2024/03/06 07:58:08;;;;;;;12.50;8.73;;;;;;;;;;5114375;28;20615;-81
2024/03/06 08:00:35;;;;;;;9.70;7.27;;;;;;;;;;5114149;28;20225;-81
2024/03/06 08:03:02;;;;;;;7.27;5.70;;;;;;;;;;5114028;28;20561;-81
2024/03/06 08:05:33;;;;;;;12.03;8.87;;;;;;;;;;5109659;28;20284;-80
2024/03/06 08:08:03;;;;;;;15.23;12.80;;;;;;;;;;5095877;28;20214;-80
2024/03/06 08:10:31;;;;;;;10.03;6.20;;;;;;;;;;5097945;28;20218;-79
2024/03/06 08:12:58;;;;;;;7.93;5.40;;;;;;;;;;5124175;27;20293;-80
2024/03/06 08:15:25;;;;;;;10.50;5.80;;;;;;;;;;5133987;27;20233;-80
2024/03/06 08:17:53;;;;;;;8.50;6.90;;;;;;;;;;5134335;27;20245;-80
2024/03/06 08:20:20;;;;;;;8.68;5.90;;;;;;;;;;5134652;27;20287;-79
2024/03/06 08:22:49;;;;;;;11.02;8.50;;;;;;;;;;5134622;27;20292;-79
2024/03/06 08:25:16;;;;;;;23.73;13.68;;;;;;;;;;5125828;27;20197;-80
2024/03/06 08:27:44;;;;;;;46.97;25.33;;;;;;;;;;5101948;28;20225;-80
2024/03/06 08:30:11;;;;;;;16.85;9.07;;;;;;;;;;5110337;28;20198;-81
2024/03/06 08:32:40;;;;;;;9.98;6.15;;;;;;;;;;4745488;27;10000389;-81
2024/03/06 08:35:10;;;;;;;8.70;5.97;;;;;;;;;;5111568;28;20293;-81
2024/03/06 08:37:38;;;;;;;12.45;6.18;;;;;;;;;;5113539;28;20190;-82
2024/03/06 08:40:10;;;;;;;11.55;6.85;;;;;;;;;;5112903;28;20686;-81
2024/03/06 08:42:37;;;;;;;14.07;9.90;;;;;;;;;;5113214;28;20204;-82
2024/03/06 08:45:05;;;;;;;12.75;8.88;;;;;;;;;;5113288;28;20288;-82
2024/03/06 08:47:32;;;;;;;20.33;13.05;;;;;;;;;;5113569;28;20197;-81
2024/03/06 08:49:59;;;;;;;16.88;12.52;;;;;;;;;;5113075;28;20862;-81
2024/03/06 08:52:26;;;;;;;17.05;12.63;;;;;;;;;;5112765;28;20260;-81
2024/03/06 08:54:54;;;;;;;16.13;10.60;;;;;;;;;;5113893;28;20217;-81
2024/03/06 08:57:23;;;;;;;11.93;7.35;;;;;;;;;;5113021;28;20202;-80
2024/03/06 08:59:51;;;;;;;11.55;6.70;;;;;;;;;;5112974;28;20194;-82
2024/03/06 09:02:20;;;;;;;6.80;4.93;;;;;;;;;;5112961;28;20201;-81
2024/03/06 09:04:47;;;;;;;8.68;5.43;;;;;;;;;;5112785;28;20548;-80
2024/03/06 09:07:15;;;;;;;7.20;6.00;;;;;;;;;;5112640;28;20208;-81
2024/03/06 09:09:42;;;;;;;12.38;9.38;;;;;;;;;;5112577;28;20658;-80
2024/03/06 09:12:10;;;;;;;10.80;5.50;;;;;;;;;;5116134;27;20304;-80
2024/03/06 09:14:39;;;;;;;9.82;6.32;;;;;;;;;;5133216;27;20203;-81
2024/03/06 09:17:07;;;;;;;9.10;6.18;;;;;;;;;;5133031;27;20918;-80
2024/03/06 09:19:34;;;;;;;9.40;4.13;;;;;;;;;;5133557;27;20275;-79
2024/03/06 09:22:02;;;;;;;9.15;3.92;;;;;;;;;;5134053;27;20288;-81
2024/03/06 09:24:30;;;;;;;9.00;4.10;;;;;;;;;;5132851;27;20220;-81
2024/03/06 09:26:57;;;;;;;8.95;4.10;;;;;;;;;;5132721;27;20627;-82
2024/03/06 09:29:24;;;;;;;9.00;3.97;;;;;;;;;;5133277;27;20227;-80
2024/03/06 09:31:53;;;;;;;10.18;4.10;;;;;;;;;;5132576;27;20667;-81
2024/03/06 09:34:21;;;;;;;8.63;4.25;;;;;;;;;;5133322;27;20280;-81
2024/03/06 09:36:49;;;;;;;9.30;4.47;;;;;;;;;;5133012;27;20197;-81
2024/03/06 09:39:17;;;;;;;9.45;4.20;;;;;;;;;;5132945;27;20276;-80
2024/03/06 09:41:45;;;;;;;11.65;4.43;;;;;;;;;;5132228;27;20217;-82
2024/03/06 09:44:13;;;;;;;13.93;4.47;;;;;;;;;;5133108;27;20193;-80
2024/03/06 09:46:41;;;;;;;10.35;4.07;;;;;;;;;;5132671;27;20674;-81
2024/03/06 09:49:10;;;;;;;10.18;3.40;;;;;;;;;;5131830;27;20235;-82
2024/03/06 09:51:38;;;;;;;11.10;3.17;;;;;;;;;;5121608;27;20217;-81
2024/03/06 09:54:07;;;;;;;9.60;3.05;;;;;;;;;;5111829;28;20201;-81
2024/03/06 09:56:34;;;;;;;9.40;2.67;;;;;;;;;;5111359;28;20212;-82
2024/03/06 09:59:03;;;;;;;8.95;3.20;;;;;;;;;;5111648;28;20197;-82
2024/03/06 10:01:31;;;;;;;8.75;2.55;;;;;;;;;;5112326;28;20271;-81
2024/03/06 10:03:58;;;;;;;7.10;2.40;;;;;;;;;;5111413;28;20652;-80
2024/03/06 10:06:30;;;;;;;11.48;2.80;;;;;;;;;;5112031;28;20204;-82
2024/03/06 10:09:08;;;;;;;10.57;2.50;;;;;;;;;;5111896;28;20197;-80
2024/03/06 10:11:39;;;;;;;9.88;2.53;;;;;;;;;;5111313;28;20237;-81
2024/03/06 10:14:07;;;;;;;8.88;2.50;;;;;;;;;;5131693;27;20201;-81
2024/03/06 10:16:36;;;;;;;9.07;2.20;;;;;;;;;;5132365;27;20682;-82
2024/03/06 10:19:16;;;;;;;8.23;2.08;;;;;;;;;;5131539;27;20658;-82
2024/03/06 10:21:45;;;;;;;8.90;2.30;;;;;;;;;;5132442;27;20204;-80
2024/03/06 10:24:12;;;;;;;8.95;1.85;;;;;;;;;;5131171;27;20199;-80
2024/03/06 10:26:39;;;;;;;7.30;1.98;;;;;;;;;;5112983;27;20198;-80
2024/03/06 10:29:07;;;;;;;7.03;1.60;;;;;;;;;;5111117;28;20190;-82
2024/03/06 10:31:34;;;;;;;11.60;2.15;;;;;;;;;;5095044;28;20256;-82
2024/03/06 10:34:01;;;;;;;6.40;1.83;;;;;;;;;;5110657;28;20200;-80
2024/03/06 10:36:28;;;;;;;10.95;1.80;;;;;;;;;;5094807;28;20209;-81
2024/03/06 10:38:57;;;;;;;9.52;2.17;;;;;;;;;;5090398;28;20277;-82
2024/03/06 10:41:25;;;;;;;5.65;2.28;;;;;;;;;;5095170;28;20286;-82
2024/03/06 10:43:54;;;;;;;8.98;2.08;;;;;;;;;;5102027;28;20297;-81
2024/03/06 10:46:21;;;;;;;8.98;2.60;;;;;;;;;;5108924;28;20227;-81
2024/03/06 10:48:51;;;;;;;9.57;2.47;;;;;;;;;;5091202;28;20281;-81
2024/03/06 10:51:19;;;;;;;8.18;2.10;;;;;;;;;;5090854;28;20263;-82
2024/03/06 10:53:47;;;;;;;8.25;2.20;;;;;;;;;;5090672;28;20285;-80
2024/03/06 10:56:15;;;;;;;8.88;2.53;;;;;;;;;;5090829;28;20573;-80
2024/03/06 10:58:43;;;;;;;8.57;2.65;;;;;;;;;;5098087;28;20284;-82
2024/03/06 11:01:12;;;;;;;6.03;2.50;;;;;;;;;;5112190;28;20285;-81
2024/03/06 11:03:39;;;;;;;7.57;2.42;;;;;;;;;;5115329;28;20220;-81
2024/03/06 11:06:07;;;;;;;6.70;2.15;;;;;;;;;;5115122;28;20254;-81
2024/03/06 11:08:34;;;;;;;6.50;2.50;;;;;;;;;;5114768;28;20221;-80
2024/03/06 11:11:16;;;;;;;5.45;2.15;;;;;;;;;;5114977;28;20229;-82
2024/03/06 11:13:45;;;;;;;7.10;2.58;;;;;;;;;;5131111;27;20678;-82
2024/03/06 11:16:12;;;;;;;8.70;2.60;;;;;;;;;;5135930;27;20228;-82
2024/03/06 11:18:43;;;;;;;9.68;2.83;;;;;;;;;;5135422;27;20307;-83
2024/03/06 11:21:29;;;;;;;7.80;2.42;;;;;;;;;;5135881;27;20572;-79
2024/03/06 11:24:16;;;;;;;10.20;2.20;;;;;;;;;;5127287;27;20624;-80
2024/03/06 11:26:44;;;;;;;6.35;1.73;;;;;;;;;;5114789;28;20194;-82
2024/03/06 11:29:12;;;;;;;10.27;2.22;;;;;;;;;;5112990;27;20267;-82
2024/03/06 11:31:39;;;;;;;8.45;2.10;;;;;;;;;;5111431;28;20968;-83
2024/03/06 11:34:07;;;;;;;9.05;2.20;;;;;;;;;;5121979;27;20288;-82
2024/03/06 11:36:37;;;;;;;10.93;2.97;;;;;;;;;;5116180;28;20202;-82
2024/03/06 11:39:05;;;;;;;8.40;2.05;;;;;;;;;;5115734;28;20194;-84
2024/03/06 11:41:33;;;;;;;7.90;2.13;;;;;;;;;;5122195;28;20636;-83
2024/03/06 11:44:01;;;;;;;8.80;2.08;;;;;;;;;;5116397;28;20280;-82
2024/03/06 11:46:43;;;;;;;12.20;2.03;;;;;;;;;;5117552;28;20293;-82
2024/03/06 11:49:20;;;;;;;9.52;2.13;;;;;;;;;;5116462;28;20222;-83
2024/03/06 11:51:48;;;;;;;6.13;1.60;;;;;;;;;;5114330;28;20229;-83
2024/03/06 11:54:15;;;;;;;8.55;2.17;;;;;;;;;;5113754;28;20218;-83
2024/03/06 11:56:44;;;;;;;11.05;2.65;;;;;;;;;;5114489;28;20194;-84
2024/03/06 11:59:11;;;;;;;6.00;1.92;;;;;;;;;;5114419;28;20570;-82
2024/03/06 12:01:38;;;;;;;7.75;1.90;;;;;;;;;;5115557;28;20189;-83
2024/03/06 12:04:06;;;;;;;4.45;1.63;;;;;;;;;;5119198;28;20206;-81
2024/03/06 12:06:35;;;;;;;5.60;2.10;;;;;;;;;;5113587;28;20289;-82
2024/03/06 12:09:03;;;;;;;9.38;2.13;;;;;;;;;;5114317;28;20229;-82
2024/03/06 12:11:31;;;;;;;5.40;1.90;;;;;;;;;;5113464;28;20618;-80
2024/03/06 12:13:58;;;;;;;7.22;2.33;;;;;;;;;;5132813;27;20213;-83
2024/03/06 12:16:26;;;;;;;5.93;1.92;;;;;;;;;;5133474;27;20320;-82
2024/03/06 12:18:57;;;;;;;7.15;2.20;;;;;;;;;;5111660;28;20220;-81
2024/03/06 12:21:25;;;;;;;7.72;2.05;;;;;;;;;;5113675;28;20293;-82
2024/03/06 12:24:03;;;;;;;6.47;1.90;;;;;;;;;;5113549;28;20293;-82
2024/03/06 12:26:31;;;;;;;5.22;1.92;;;;;;;;;;5114095;28;20229;-82
2024/03/06 12:29:05;;;;;;;6.03;1.92;;;;;;;;;;5113806;28;20197;-81
2024/03/06 12:31:33;;;;;;;5.85;1.83;;;;;;;;;;5114089;28;20247;-81
2024/03/06 12:34:02;;;;;;;6.70;1.63;;;;;;;;;;5113816;27;20248;-83
2024/03/06 12:36:31;;;;;;;5.38;1.40;;;;;;;;;;5112811;27;20198;-82
2024/03/06 12:39:00;;;;;;;8.65;1.80;;;;;;;;;;5112180;28;20194;-82
2024/03/06 12:41:27;;;;;;;6.43;1.67;;;;;;;;;;5112194;28;20666;-82
2024/03/06 12:43:55;;;;;;;8.80;2.08;;;;;;;;;;5112250;28;20194;-80
2024/03/06 12:46:23;;;;;;;7.32;1.77;;;;;;;;;;5107752;28;20281;-82
2024/03/06 12:48:50;;;;;;;5.25;1.50;;;;;;;;;;5111549;28;20229;-82
2024/03/06 12:51:17;;;;;;;9.45;2.38;;;;;;;;;;5114858;27;20225;-81
2024/03/06 12:53:44;;;;;;;7.45;1.77;;;;;;;;;;5119500;27;20222;-82
2024/03/06 12:56:13;;;;;;;9.18;1.95;;;;;;;;;;5112073;28;20278;-81
2024/03/06 12:58:40;;;;;;;7.30;1.73;;;;;;;;;;5111719;28;20216;-82
2024/03/06 13:01:07;;;;;;;7.00;1.70;;;;;;;;;;5110594;28;20194;-81
2024/03/06 13:03:34;;;;;;;6.10;1.60;;;;;;;;;;5111196;28;20280;-82
2024/03/06 13:06:02;;;;;;;6.68;1.75;;;;;;;;;;5112875;28;20247;-82
2024/03/06 13:08:29;;;;;;;7.28;1.60;;;;;;;;;;5112105;28;20200;-81
2024/03/06 13:10:56;;;;;;;6.78;1.90;;;;;;;;;;5111849;28;20310;-82
2024/03/06 13:13:24;;;;;;;7.28;1.73;;;;;;;;;;5124367;27;20229;-81
2024/03/06 13:15:52;;;;;;;7.25;2.10;;;;;;;;;;5109275;28;20306;-81
2024/03/06 13:18:19;;;;;;;8.48;1.90;;;;;;;;;;5112281;28;20246;-81
2024/03/06 13:20:46;;;;;;;7.70;1.88;;;;;;;;;;5111815;28;20355;-81
2024/03/06 13:23:14;;;;;;;6.40;1.90;;;;;;;;;;5110995;28;20186;-81
2024/03/06 13:25:41;;;;;;;6.47;1.80;;;;;;;;;;5111239;28;20239;-81
2024/03/06 13:28:09;;;;;;;9.23;2.13;;;;;;;;;;5108594;27;20229;-81
2024/03/06 13:30:40;;;;;;;6.43;1.70;;;;;;;;;;5110281;28;20194;-82
2024/03/06 13:33:11;;;;;;;6.90;2.05;;;;;;;;;;5111355;28;20225;-81
2024/03/06 13:35:38;;;;;;;8.05;1.92;;;;;;;;;;5111134;28;20202;-82
2024/03/06 13:38:05;;;;;;;6.75;1.70;;;;;;;;;;5111193;28;20305;-80
2024/03/06 13:40:32;;;;;;;6.70;1.38;;;;;;;;;;5111943;28;20221;-81
2024/03/06 13:42:59;;;;;;;5.18;1.45;;;;;;;;;;5111565;28;20194;-81
2024/03/06 13:45:26;;;;;;;6.25;1.63;;;;;;;;;;5111372;28;20190;-81
2024/03/06 13:47:55;;;;;;;7.15;1.70;;;;;;;;;;5111273;28;20204;-80
2024/03/06 13:50:25;;;;;;;6.95;2.17;;;;;;;;;;5111648;28;20233;-81
2024/03/06 13:52:52;;;;;;;5.57;1.55;;;;;;;;;;5105086;28;20636;-82
2024/03/06 13:55:28;;;;;;;11.07;2.28;;;;;;;;;;5110392;28;20190;-81
2024/03/06 13:57:55;;;;;;;5.63;1.63;;;;;;;;;;5108112;28;20310;-81
2024/03/06 14:00:22;;;;;;;4.80;1.73;;;;;;;;;;5102587;28;20284;-79
2024/03/06 14:02:51;;;;;;;5.35;1.42;;;;;;;;;;5106784;28;20206;-80
2024/03/06 14:05:24;;;;;;;8.70;1.63;;;;;;;;;;5108766;28;20270;-80
2024/03/06 14:07:52;;;;;;;7.47;1.48;;;;;;;;;;5110885;28;20196;-81
2024/03/06 14:10:21;;;;;;;6.35;1.23;;;;;;;;;;5110392;28;21072;-81
2024/03/06 14:12:51;;;;;;;8.50;1.37;;;;;;;;;;5120325;27;20223;-82
2024/03/06 14:15:19;;;;;;;8.15;1.52;;;;;;;;;;5108395;28;20193;-82
2024/03/06 14:17:46;;;;;;;5.97;1.50;;;;;;;;;;5110451;28;20198;-81
2024/03/06 14:20:13;;;;;;;5.63;1.58;;;;;;;;;;5110249;28;20293;-82
2024/03/06 14:22:45;;;;;;;6.45;1.50;;;;;;;;;;5106187;27;20296;-81
2024/03/06 14:25:13;;;;;;;10.05;1.98;;;;;;;;;;5110138;28;20254;-83
2024/03/06 14:27:40;;;;;;;5.97;1.35;;;;;;;;;;5099826;28;20651;-81
2024/03/06 14:30:08;;;;;;;6.32;1.63;;;;;;;;;;5111140;28;20225;-81
2024/03/06 14:32:36;;;;;;;4.70;1.30;;;;;;;;;;5101496;28;20197;-82